sensor_id;sensor_type;location;lat;lon;timestamp;temperature;humidity
74420;DHT22;62855;50.718;-2.460;2023-02-01T00:02:00;41.18;75.00
74420;DHT22;62855;50.718;-2.460;2023-02-01T00:05:00;41.18;75.00
74420;DHT22;62855;50.718;-2.460;2023-02-01T00:08:00;41.18;75.00
74420;DHT22;62855;50.718;-2.460;2023-02-01T00:11:02;41.18;74.00
74420;DHT22;62855;50.718;-2.460;2023-02-01T00:14:00;41.18;74.00
74420;DHT22;62855;50.718;-2.460;2023-02-01T00:17:00;41.18;74.00
74420;DHT22;62855;50.718;-2.460;2023-02-01T00:20:00;41.18;73.00
74420;DHT22;62855;50.718;-2.460;2023-02-01T00:23:00;41.18;73.00
74420;DHT22;62855;50.718;-2.460;2023-02-01T00:26:01;41.18;73.00
74420;DHT22;62855;50.718;-2.460;2023-02-01T00:29:03;41.18;73.00
74420;DHT22;62855;50.718;-2.460;2023-02-01T00:32:01;41.18;72.00
74420;DHT22;62855;50.718;-2.460;2023-02-01T00:35:00;41.00;72.00
74420;DHT22;62855;50.718;-2.460;2023-02-01T00:38:00;41.00;72.00
74420;DHT22;62855;50.718;-2.460;2023-02-01T00:41:02;41.00;72.00
74420;DHT22;62855;50.718;-2.460;2023-02-01T00:44:00;41.00;72.00
74420;DHT22;62855;50.718;-2.460;2023-02-01T00:47:00;41.00;72.00
74420;DHT22;62855;50.718;-2.460;2023-02-01T00:50:00;41.00;73.00
74420;DHT22;62855;50.718;-2.460;2023-02-01T00:53:00;41.00;72.00
74420;DHT22;62855;50.718;-2.460;2023-02-01T00:56:01;41.00;72.00
74420;DHT22;62855;50.718;-2.460;2023-02-01T00:59:00;41.00;72.00
74420;DHT22;62855;50.718;-2.460;2023-02-01T01:02:00;41.00;72.00
74420;DHT22;62855;50.718;-2.460;2023-02-01T01:05:00;41.00;73.00
74420;DHT22;62855;50.718;-2.460;2023-02-01T01:08:00;41.00;73.00
74420;DHT22;62855;50.718;-2.460;2023-02-01T01:11:04;41.00;73.00
74420;DHT22;62855;50.718;-2.460;2023-02-01T01:14:02;41.00;73.00
74420;DHT22;62855;50.718;-2.460;2023-02-01T01:17:01;41.18;73.00
74420;DHT22;62855;50.718;-2.460;2023-02-01T01:20:00;41.18;73.00
74420;DHT22;62855;50.718;-2.460;2023-02-01T01:23:00;41.18;73.00
74420;DHT22;62855;50.718;-2.460;2023-02-01T01:26:04;41.18;73.00
74420;DHT22;62855;50.718;-2.460;2023-02-01T01:29:00;41.36;73.00
74420;DHT22;62855;50.718;-2.460;2023-02-01T01:32:00;41.36;73.00
74420;DHT22;62855;50.718;-2.460;2023-02-01T01:35:00;41.36;72.00
74420;DHT22;62855;50.718;-2.460;2023-02-01T01:38:01;41.36;72.00
74420;DHT22;62855;50.718;-2.460;2023-02-01T01:41:01;41.36;72.00
74420;DHT22;62855;50.718;-2.460;2023-02-01T01:44:03;41.18;72.00
74420;DHT22;62855;50.718;-2.460;2023-02-01T01:47:01;41.18;72.00
74420;DHT22;62855;50.718;-2.460;2023-02-01T01:50:01;41.18;72.00
74420;DHT22;62855;50.718;-2.460;2023-02-01T01:53:03;41.18;72.00
74420;DHT22;62855;50.718;-2.460;2023-02-01T01:56:01;41.18;72.00
74420;DHT22;62855;50.718;-2.460;2023-02-01T01:59:01;41.18;72.00
74420;DHT22;62855;50.718;-2.460;2023-02-01T02:02:01;41.18;72.00
74420;DHT22;62855;50.718;-2.460;2023-02-01T02:05:00;41.18;72.00
74420;DHT22;62855;50.718;-2.460;2023-02-01T02:08:00;41.18;72.00
74420;DHT22;62855;50.718;-2.460;2023-02-01T02:11:01;41.18;72.00
74420;DHT22;62855;50.718;-2.460;2023-02-01T02:14:01;41.00;72.00
74420;DHT22;62855;50.718;-2.460;2023-02-01T02:17:12;41.00;72.00
74420;DHT22;62855;50.718;-2.460;2023-02-01T02:20:18;40.82;72.00
74420;DHT22;62855;50.718;-2.460;2023-02-01T02:23:18;40.64;72.00
74420;DHT22;62855;50.718;-2.460;2023-02-01T02:26:15;40.64;72.00
74420;DHT22;62855;50.718;-2.460;2023-02-01T02:29:20;40.64;72.00
74420;DHT22;62855;50.718;-2.460;2023-02-01T02:32:14;40.46;73.00
74420;DHT22;62855;50.718;-2.460;2023-02-01T02:35:05;40.46;73.00
74420;DHT22;62855;50.718;-2.460;2023-02-01T02:38:09;40.28;73.00
74420;DHT22;62855;50.718;-2.460;2023-02-01T02:41:11;40.28;73.00
74420;DHT22;62855;50.718;-2.460;2023-02-01T02:44:07;40.28;73.00
74420;DHT22;62855;50.718;-2.460;2023-02-01T02:47:03;40.10;73.00
74420;DHT22;62855;50.718;-2.460;2023-02-01T02:50:07;40.10;73.00
74420;DHT22;62855;50.718;-2.460;2023-02-01T02:53:05;39.92;73.00
74420;DHT22;62855;50.718;-2.460;2023-02-01T02:56:02;39.92;73.00
74420;DHT22;62855;50.718;-2.460;2023-02-01T02:59:02;40.10;74.00
74420;DHT22;62855;50.718;-2.460;2023-02-01T03:02:01;40.28;74.00
74420;DHT22;62855;50.718;-2.460;2023-02-01T03:05:00;40.46;75.00
74420;DHT22;62855;50.718;-2.460;2023-02-01T03:08:03;40.64;75.00
74420;DHT22;62855;50.718;-2.460;2023-02-01T03:11:04;40.82;75.00
74420;DHT22;62855;50.718;-2.460;2023-02-01T03:14:02;40.82;75.00
74420;DHT22;62855;50.718;-2.460;2023-02-01T03:17:04;41.00;75.00
74420;DHT22;62855;50.718;-2.460;2023-02-01T03:20:03;41.00;75.00
74420;DHT22;62855;50.718;-2.460;2023-02-01T03:23:02;41.00;75.00
74420;DHT22;62855;50.718;-2.460;2023-02-01T03:26:02;41.00;74.00
74420;DHT22;62855;50.718;-2.460;2023-02-01T03:30:04;40.82;74.00
74420;DHT22;62855;50.718;-2.460;2023-02-01T03:33:04;40.82;74.00
74420;DHT22;62855;50.718;-2.460;2023-02-01T03:36:08;40.64;74.00
74420;DHT22;62855;50.718;-2.460;2023-02-01T03:39:03;40.64;74.00
74420;DHT22;62855;50.718;-2.460;2023-02-01T03:42:03;40.64;74.00
74420;DHT22;62855;50.718;-2.460;2023-02-01T03:45:05;40.64;74.00
74420;DHT22;62855;50.718;-2.460;2023-02-01T03:48:02;40.82;74.00
74420;DHT22;62855;50.718;-2.460;2023-02-01T03:51:01;40.82;74.00
74420;DHT22;62855;50.718;-2.460;2023-02-01T03:54:01;40.82;74.00
74420;DHT22;62855;50.718;-2.460;2023-02-01T03:57:05;40.82;74.00
74420;DHT22;62855;50.718;-2.460;2023-02-01T04:00:05;40.82;74.00
74420;DHT22;62855;50.718;-2.460;2023-02-01T04:03:02;40.82;74.00
74420;DHT22;62855;50.718;-2.460;2023-02-01T04:06:00;40.82;74.00
74420;DHT22;62855;50.718;-2.460;2023-02-01T04:09:01;40.82;74.00
74420;DHT22;62855;50.718;-2.460;2023-02-01T04:12:01;41.00;74.00
74420;DHT22;62855;50.718;-2.460;2023-02-01T04:15:00;40.82;74.00
74420;DHT22;62855;50.718;-2.460;2023-02-01T04:18:00;40.82;74.00
74420;DHT22;62855;50.718;-2.460;2023-02-01T04:21:00;40.82;74.00
74420;DHT22;62855;50.718;-2.460;2023-02-01T04:24:01;40.82;74.00
74420;DHT22;62855;50.718;-2.460;2023-02-01T04:27:01;40.82;74.00
74420;DHT22;62855;50.718;-2.460;2023-02-01T04:30:00;40.82;74.00
74420;DHT22;62855;50.718;-2.460;2023-02-01T04:33:00;40.82;74.00
74420;DHT22;62855;50.718;-2.460;2023-02-01T04:36:00;40.82;74.00
74420;DHT22;62855;50.718;-2.460;2023-02-01T04:39:00;40.82;74.00
74420;DHT22;62855;50.718;-2.460;2023-02-01T04:42:01;41.00;74.00
74420;DHT22;62855;50.718;-2.460;2023-02-01T04:45:00;41.00;74.00
74420;DHT22;62855;50.718;-2.460;2023-02-01T04:48:01;41.18;74.00
74420;DHT22;62855;50.718;-2.460;2023-02-01T04:51:00;41.18;73.00
74420;DHT22;62855;50.718;-2.460;2023-02-01T04:54:00;41.18;73.00
74420;DHT22;62855;50.718;-2.460;2023-02-01T04:57:00;41.18;73.00
74420;DHT22;62855;50.718;-2.460;2023-02-01T05:00:01;41.18;73.00
74420;DHT22;62855;50.718;-2.460;2023-02-01T05:03:00;41.18;73.00
74420;DHT22;62855;50.718;-2.460;2023-02-01T05:06:01;41.18;73.00
74420;DHT22;62855;50.718;-2.460;2023-02-01T05:09:00;41.18;73.00
74420;DHT22;62855;50.718;-2.460;2023-02-01T05:12:00;41.18;72.00
74420;DHT22;62855;50.718;-2.460;2023-02-01T05:15:00;41.18;72.00
74420;DHT22;62855;50.718;-2.460;2023-02-01T05:18:00;41.18;72.00
74420;DHT22;62855;50.718;-2.460;2023-02-01T05:21:00;41.18;72.00
74420;DHT22;62855;50.718;-2.460;2023-02-01T05:24:00;41.00;72.00
74420;DHT22;62855;50.718;-2.460;2023-02-01T05:27:01;41.00;72.00
74420;DHT22;62855;50.718;-2.460;2023-02-01T05:30:00;41.00;72.00
74420;DHT22;62855;50.718;-2.460;2023-02-01T05:33:01;41.00;72.00
74420;DHT22;62855;50.718;-2.460;2023-02-01T05:36:01;41.00;72.00
74420;DHT22;62855;50.718;-2.460;2023-02-01T05:39:00;41.00;72.00
74420;DHT22;62855;50.718;-2.460;2023-02-01T05:42:00;41.00;73.00
74420;DHT22;62855;50.718;-2.460;2023-02-01T05:45:01;41.00;73.00
74420;DHT22;62855;50.718;-2.460;2023-02-01T05:48:00;41.00;73.00
74420;DHT22;62855;50.718;-2.460;2023-02-01T05:51:01;41.00;73.00
74420;DHT22;62855;50.718;-2.460;2023-02-01T05:54:00;41.18;73.00
74420;DHT22;62855;50.718;-2.460;2023-02-01T05:57:01;41.18;73.00
74420;DHT22;62855;50.718;-2.460;2023-02-01T06:00:01;41.18;73.00
74420;DHT22;62855;50.718;-2.460;2023-02-01T06:03:01;41.18;73.00
74420;DHT22;62855;50.718;-2.460;2023-02-01T06:06:00;41.18;74.00
74420;DHT22;62855;50.718;-2.460;2023-02-01T06:09:00;41.00;74.00
74420;DHT22;62855;50.718;-2.460;2023-02-01T06:12:00;41.00;74.00
74420;DHT22;62855;50.718;-2.460;2023-02-01T06:15:01;41.00;74.00
74420;DHT22;62855;50.718;-2.460;2023-02-01T06:18:01;41.00;74.00
74420;DHT22;62855;50.718;-2.460;2023-02-01T06:21:00;40.82;74.00
74420;DHT22;62855;50.718;-2.460;2023-02-01T06:24:00;40.82;74.00
74420;DHT22;62855;50.718;-2.460;2023-02-01T06:27:00;40.82;74.00
74420;DHT22;62855;50.718;-2.460;2023-02-01T06:30:01;40.82;75.00
74420;DHT22;62855;50.718;-2.460;2023-02-01T06:33:01;40.82;75.00
74420;DHT22;62855;50.718;-2.460;2023-02-01T06:36:03;40.82;75.00
74420;DHT22;62855;50.718;-2.460;2023-02-01T06:39:01;40.82;75.00
74420;DHT22;62855;50.718;-2.460;2023-02-01T06:42:01;40.64;75.00
74420;DHT22;62855;50.718;-2.460;2023-02-01T06:45:01;40.64;75.00
74420;DHT22;62855;50.718;-2.460;2023-02-01T06:48:00;40.64;75.00
74420;DHT22;62855;50.718;-2.460;2023-02-01T06:51:00;40.64;76.00
74420;DHT22;62855;50.718;-2.460;2023-02-01T06:54:00;40.64;76.00
74420;DHT22;62855;50.718;-2.460;2023-02-01T06:57:00;40.64;76.00
74420;DHT22;62855;50.718;-2.460;2023-02-01T07:00:02;40.64;77.00
74420;DHT22;62855;50.718;-2.460;2023-02-01T07:03:00;40.64;77.00
74420;DHT22;62855;50.718;-2.460;2023-02-01T07:06:00;40.64;77.00
74420;DHT22;62855;50.718;-2.460;2023-02-01T07:09:00;40.64;77.00
74420;DHT22;62855;50.718;-2.460;2023-02-01T07:12:00;40.64;77.00
74420;DHT22;62855;50.718;-2.460;2023-02-01T07:15:01;40.64;77.00
74420;DHT22;62855;50.718;-2.460;2023-02-01T07:18:01;40.64;78.00
74420;DHT22;62855;50.718;-2.460;2023-02-01T07:21:01;40.64;78.00
74420;DHT22;62855;50.718;-2.460;2023-02-01T07:24:00;40.64;78.00
74420;DHT22;62855;50.718;-2.460;2023-02-01T07:27:00;40.64;78.00
74420;DHT22;62855;50.718;-2.460;2023-02-01T07:30:01;40.64;78.00
74420;DHT22;62855;50.718;-2.460;2023-02-01T07:33:00;40.64;78.00
74420;DHT22;62855;50.718;-2.460;2023-02-01T07:36:02;40.64;78.00
74420;DHT22;62855;50.718;-2.460;2023-02-01T07:39:01;40.64;78.00
74420;DHT22;62855;50.718;-2.460;2023-02-01T07:42:01;40.64;79.00
74420;DHT22;62855;50.718;-2.460;2023-02-01T07:45:00;40.64;79.00
74420;DHT22;62855;50.718;-2.460;2023-02-01T07:48:01;40.64;79.00
74420;DHT22;62855;50.718;-2.460;2023-02-01T07:51:02;40.64;79.00
74420;DHT22;62855;50.718;-2.460;2023-02-01T07:54:00;40.64;79.00
74420;DHT22;62855;50.718;-2.460;2023-02-01T07:57:01;40.82;79.00
74420;DHT22;62855;50.718;-2.460;2023-02-01T08:00:00;40.82;79.00
74420;DHT22;62855;50.718;-2.460;2023-02-01T08:03:01;41.00;80.00
74420;DHT22;62855;50.718;-2.460;2023-02-01T08:06:00;41.00;80.00
74420;DHT22;62855;50.718;-2.460;2023-02-01T08:09:01;41.00;80.00
74420;DHT22;62855;50.718;-2.460;2023-02-01T08:12:01;41.18;80.00
74420;DHT22;62855;50.718;-2.460;2023-02-01T08:15:00;41.18;80.00
74420;DHT22;62855;50.718;-2.460;2023-02-01T08:18:01;41.18;79.00
74420;DHT22;62855;50.718;-2.460;2023-02-01T08:21:03;41.18;79.00
74420;DHT22;62855;50.718;-2.460;2023-02-01T08:24:00;41.18;79.00
74420;DHT22;62855;50.718;-2.460;2023-02-01T08:27:01;41.36;80.00
74420;DHT22;62855;50.718;-2.460;2023-02-01T08:30:00;41.36;80.00
74420;DHT22;62855;50.718;-2.460;2023-02-01T08:33:00;41.54;80.00
74420;DHT22;62855;50.718;-2.460;2023-02-01T08:36:01;41.72;80.00
74420;DHT22;62855;50.718;-2.460;2023-02-01T08:39:01;41.72;80.00
74420;DHT22;62855;50.718;-2.460;2023-02-01T08:42:00;41.90;80.00
74420;DHT22;62855;50.718;-2.460;2023-02-01T08:45:01;41.90;80.00
74420;DHT22;62855;50.718;-2.460;2023-02-01T08:48:00;42.08;79.00
74420;DHT22;62855;50.718;-2.460;2023-02-01T08:51:01;42.08;79.00
74420;DHT22;62855;50.718;-2.460;2023-02-01T08:54:01;42.08;79.00
74420;DHT22;62855;50.718;-2.460;2023-02-01T08:57:00;42.26;79.00
74420;DHT22;62855;50.718;-2.460;2023-02-01T09:00:01;42.44;79.00
74420;DHT22;62855;50.718;-2.460;2023-02-01T09:03:01;42.44;79.00
74420;DHT22;62855;50.718;-2.460;2023-02-01T09:06:01;42.62;79.00
74420;DHT22;62855;50.718;-2.460;2023-02-01T09:09:01;42.80;79.00
74420;DHT22;62855;50.718;-2.460;2023-02-01T09:12:01;42.80;79.00
74420;DHT22;62855;50.718;-2.460;2023-02-01T09:15:01;42.98;79.00
74420;DHT22;62855;50.718;-2.460;2023-02-01T09:18:01;43.16;79.00
74420;DHT22;62855;50.718;-2.460;2023-02-01T09:21:04;43.34;78.00
74420;DHT22;62855;50.718;-2.460;2023-02-01T09:24:01;43.52;78.00
74420;DHT22;62855;50.718;-2.460;2023-02-01T09:27:01;43.88;78.00
74420;DHT22;62855;50.718;-2.460;2023-02-01T09:30:00;43.88;78.00
74420;DHT22;62855;50.718;-2.460;2023-02-01T09:33:00;44.06;77.00
74420;DHT22;62855;50.718;-2.460;2023-02-01T09:36:02;44.24;77.00
74420;DHT22;62855;50.718;-2.460;2023-02-01T09:39:00;44.42;71.00
74420;DHT22;62855;50.718;-2.460;2023-02-01T09:42:11;44.60;71.00
74420;DHT22;62855;50.718;-2.460;2023-02-01T09:45:09;44.96;71.00
74420;DHT22;62855;50.718;-2.460;2023-02-01T09:50:17;45.32;71.00
74420;DHT22;62855;50.718;-2.460;2023-02-01T09:53:04;45.50;71.00
74420;DHT22;62855;50.718;-2.460;2023-02-01T09:56:04;45.68;70.00
74420;DHT22;62855;50.718;-2.460;2023-02-01T09:59:09;45.86;70.00
74420;DHT22;62855;50.718;-2.460;2023-02-01T10:02:03;45.86;70.00
74420;DHT22;62855;50.718;-2.460;2023-02-01T10:05:01;46.04;70.00
74420;DHT22;62855;50.718;-2.460;2023-02-01T10:08:04;46.22;70.00
74420;DHT22;62855;50.718;-2.460;2023-02-01T10:11:06;46.40;70.00
74420;DHT22;62855;50.718;-2.460;2023-02-01T10:14:04;46.40;69.00
74420;DHT22;62855;50.718;-2.460;2023-02-01T10:17:04;46.58;69.00
74420;DHT22;62855;50.718;-2.460;2023-02-01T10:20:07;46.76;69.00
74420;DHT22;62855;50.718;-2.460;2023-02-01T10:23:07;46.94;69.00
74420;DHT22;62855;50.718;-2.460;2023-02-01T10:26:05;47.12;69.00
74420;DHT22;62855;50.718;-2.460;2023-02-01T10:29:02;47.30;69.00
74420;DHT22;62855;50.718;-2.460;2023-02-01T10:32:01;47.66;68.00
74420;DHT22;62855;50.718;-2.460;2023-02-01T10:35:04;48.02;68.00
74420;DHT22;62855;50.718;-2.460;2023-02-01T10:38:01;48.38;68.00
74420;DHT22;62855;50.718;-2.460;2023-02-01T10:41:03;48.56;67.00
74420;DHT22;62855;50.718;-2.460;2023-02-01T10:44:02;48.74;66.00
74420;DHT22;62855;50.718;-2.460;2023-02-01T10:47:00;48.56;65.00
74420;DHT22;62855;50.718;-2.460;2023-02-01T10:50:06;48.74;65.00
74420;DHT22;62855;50.718;-2.460;2023-02-01T10:53:03;48.92;65.00
74420;DHT22;62855;50.718;-2.460;2023-02-01T10:56:06;48.92;65.00
74420;DHT22;62855;50.718;-2.460;2023-02-01T10:59:02;48.92;65.00
74420;DHT22;62855;50.718;-2.460;2023-02-01T11:02:16;48.92;64.00
74420;DHT22;62855;50.718;-2.460;2023-02-01T11:05:01;48.92;64.00
74420;DHT22;62855;50.718;-2.460;2023-02-01T11:08:00;48.92;64.00
74420;DHT22;62855;50.718;-2.460;2023-02-01T11:11:03;48.92;64.00
74420;DHT22;62855;50.718;-2.460;2023-02-01T11:14:08;48.92;64.00
74420;DHT22;62855;50.718;-2.460;2023-02-01T11:17:03;49.10;64.00
74420;DHT22;62855;50.718;-2.460;2023-02-01T11:20:03;49.10;64.00
74420;DHT22;62855;50.718;-2.460;2023-02-01T11:23:01;49.10;64.00
74420;DHT22;62855;50.718;-2.460;2023-02-01T11:26:07;49.10;63.00
74420;DHT22;62855;50.718;-2.460;2023-02-01T11:29:04;49.10;63.00
74420;DHT22;62855;50.718;-2.460;2023-02-01T11:32:01;49.10;63.00
74420;DHT22;62855;50.718;-2.460;2023-02-01T11:35:04;49.28;63.00
74420;DHT22;62855;50.718;-2.460;2023-02-01T11:38:00;49.82;63.00
74420;DHT22;62855;50.718;-2.460;2023-02-01T11:47:21;49.64;62.00
74420;DHT22;62855;50.718;-2.460;2023-02-01T11:50:02;49.64;62.00
74420;DHT22;62855;50.718;-2.460;2023-02-01T11:54:13;49.82;62.00
74420;DHT22;62855;50.718;-2.460;2023-02-01T11:57:13;50.00;63.00
74420;DHT22;62855;50.718;-2.460;2023-02-01T12:00:13;50.18;62.00
74420;DHT22;62855;50.718;-2.460;2023-02-01T12:03:14;50.18;62.00
74420;DHT22;62855;50.718;-2.460;2023-02-01T12:06:08;50.18;62.00
74420;DHT22;62855;50.718;-2.460;2023-02-01T12:09:13;50.18;61.00
74420;DHT22;62855;50.718;-2.460;2023-02-01T12:12:08;50.00;61.00
74420;DHT22;62855;50.718;-2.460;2023-02-01T12:15:14;50.00;61.00
74420;DHT22;62855;50.718;-2.460;2023-02-01T12:18:12;50.00;61.00
74420;DHT22;62855;50.718;-2.460;2023-02-01T12:21:06;50.00;60.00
74420;DHT22;62855;50.718;-2.460;2023-02-01T12:24:16;50.00;60.00
74420;DHT22;62855;50.718;-2.460;2023-02-01T12:27:12;50.00;60.00
74420;DHT22;62855;50.718;-2.460;2023-02-01T12:30:25;50.00;60.00
74420;DHT22;62855;50.718;-2.460;2023-02-01T12:33:06;50.18;61.00
74420;DHT22;62855;50.718;-2.460;2023-02-01T12:36:10;50.18;61.00
74420;DHT22;62855;50.718;-2.460;2023-02-01T12:39:07;50.18;60.00
74420;DHT22;62855;50.718;-2.460;2023-02-01T12:42:03;50.36;61.00
74420;DHT22;62855;50.718;-2.460;2023-02-01T12:45:09;50.36;60.00
74420;DHT22;62855;50.718;-2.460;2023-02-01T12:48:14;50.36;60.00
74420;DHT22;62855;50.718;-2.460;2023-02-01T12:51:03;50.36;60.00
74420;DHT22;62855;50.718;-2.460;2023-02-01T12:54:04;50.36;60.00
74420;DHT22;62855;50.718;-2.460;2023-02-01T12:57:02;50.18;60.00
74420;DHT22;62855;50.718;-2.460;2023-02-01T13:00:07;50.18;60.00
74420;DHT22;62855;50.718;-2.460;2023-02-01T13:03:05;50.00;60.00
74420;DHT22;62855;50.718;-2.460;2023-02-01T13:06:04;49.82;60.00
74420;DHT22;62855;50.718;-2.460;2023-02-01T13:09:06;49.64;61.00
74420;DHT22;62855;50.718;-2.460;2023-02-01T13:12:06;49.64;61.00
74420;DHT22;62855;50.718;-2.460;2023-02-01T13:15:04;49.46;61.00
74420;DHT22;62855;50.718;-2.460;2023-02-01T13:18:04;49.64;61.00
74420;DHT22;62855;50.718;-2.460;2023-02-01T13:21:05;49.64;61.00
74420;DHT22;62855;50.718;-2.460;2023-02-01T13:24:01;49.64;61.00
74420;DHT22;62855;50.718;-2.460;2023-02-01T13:27:01;49.46;61.00
74420;DHT22;62855;50.718;-2.460;2023-02-01T13:30:04;49.46;61.00
74420;DHT22;62855;50.718;-2.460;2023-02-01T13:33:14;49.64;61.00
74420;DHT22;62855;50.718;-2.460;2023-02-01T13:36:14;49.82;61.00
74420;DHT22;62855;50.718;-2.460;2023-02-01T13:39:12;49.82;61.00
74420;DHT22;62855;50.718;-2.460;2023-02-01T13:42:03;49.82;61.00
74420;DHT22;62855;50.718;-2.460;2023-02-01T13:45:04;49.82;61.00
74420;DHT22;62855;50.718;-2.460;2023-02-01T13:48:03;49.82;60.00
74420;DHT22;62855;50.718;-2.460;2023-02-01T13:51:00;49.82;61.00
74420;DHT22;62855;50.718;-2.460;2023-02-01T13:54:01;50.00;61.00
74420;DHT22;62855;50.718;-2.460;2023-02-01T13:57:03;50.00;60.00
74420;DHT22;62855;50.718;-2.460;2023-02-01T14:03:08;50.00;60.00
74420;DHT22;62855;50.718;-2.460;2023-02-01T14:06:17;50.00;60.00
74420;DHT22;62855;50.718;-2.460;2023-02-01T14:09:19;50.00;60.00
74420;DHT22;62855;50.718;-2.460;2023-02-01T14:18:00;49.64;59.00
74420;DHT22;62855;50.718;-2.460;2023-02-01T14:25:01;49.46;60.00
74420;DHT22;62855;50.718;-2.460;2023-02-01T14:28:01;49.64;60.00
74420;DHT22;62855;50.718;-2.460;2023-02-01T14:34:04;49.46;60.00
74420;DHT22;62855;50.718;-2.460;2023-02-01T14:37:04;49.46;60.00
74420;DHT22;62855;50.718;-2.460;2023-02-01T14:40:01;49.28;60.00
74420;DHT22;62855;50.718;-2.460;2023-02-01T14:43:00;49.10;60.00
74420;DHT22;62855;50.718;-2.460;2023-02-01T14:46:00;49.10;60.00
74420;DHT22;62855;50.718;-2.460;2023-02-01T14:49:00;48.92;60.00
74420;DHT22;62855;50.718;-2.460;2023-02-01T14:52:06;48.92;60.00
74420;DHT22;62855;50.718;-2.460;2023-02-01T14:55:05;48.92;60.00
74420;DHT22;62855;50.718;-2.460;2023-02-01T14:58:02;48.92;60.00
74420;DHT22;62855;50.718;-2.460;2023-02-01T15:01:04;48.92;60.00
74420;DHT22;62855;50.718;-2.460;2023-02-01T15:04:03;48.74;60.00
74420;DHT22;62855;50.718;-2.460;2023-02-01T15:07:05;48.56;60.00
74420;DHT22;62855;50.718;-2.460;2023-02-01T15:11:04;48.56;60.00
74420;DHT22;62855;50.718;-2.460;2023-02-01T15:14:00;48.38;60.00
74420;DHT22;62855;50.718;-2.460;2023-02-01T15:17:01;48.20;60.00
74420;DHT22;62855;50.718;-2.460;2023-02-01T15:20:03;48.20;60.00
74420;DHT22;62855;50.718;-2.460;2023-02-01T15:23:01;48.20;60.00
74420;DHT22;62855;50.718;-2.460;2023-02-01T15:26:01;48.20;60.00
74420;DHT22;62855;50.718;-2.460;2023-02-01T15:29:01;48.20;61.00
74420;DHT22;62855;50.718;-2.460;2023-02-01T15:32:00;48.20;61.00
74420;DHT22;62855;50.718;-2.460;2023-02-01T15:35:01;48.20;60.00
74420;DHT22;62855;50.718;-2.460;2023-02-01T15:41:05;48.20;60.00
74420;DHT22;62855;50.718;-2.460;2023-02-01T15:45:00;48.20;60.00
74420;DHT22;62855;50.718;-2.460;2023-02-01T15:48:00;48.20;60.00
74420;DHT22;62855;50.718;-2.460;2023-02-01T15:51:00;48.20;60.00
74420;DHT22;62855;50.718;-2.460;2023-02-01T15:54:02;48.20;60.00
74420;DHT22;62855;50.718;-2.460;2023-02-01T15:57:02;48.38;60.00
74420;DHT22;62855;50.718;-2.460;2023-02-01T16:00:03;48.38;60.00
74420;DHT22;62855;50.718;-2.460;2023-02-01T16:03:02;48.20;60.00
74420;DHT22;62855;50.718;-2.460;2023-02-01T16:06:02;48.20;60.00
74420;DHT22;62855;50.718;-2.460;2023-02-01T16:09:07;48.20;60.00
74420;DHT22;62855;50.718;-2.460;2023-02-01T16:12:02;48.20;60.00
74420;DHT22;62855;50.718;-2.460;2023-02-01T16:15:01;48.20;60.00
74420;DHT22;62855;50.718;-2.460;2023-02-01T16:18:00;48.20;60.00
74420;DHT22;62855;50.718;-2.460;2023-02-01T16:21:01;48.20;60.00
74420;DHT22;62855;50.718;-2.460;2023-02-01T16:24:00;48.20;60.00
74420;DHT22;62855;50.718;-2.460;2023-02-01T16:27:01;48.02;60.00
74420;DHT22;62855;50.718;-2.460;2023-02-01T16:30:00;48.02;60.00
74420;DHT22;62855;50.718;-2.460;2023-02-01T16:33:01;48.02;60.00
74420;DHT22;62855;50.718;-2.460;2023-02-01T16:36:00;47.84;60.00
74420;DHT22;62855;50.718;-2.460;2023-02-01T16:39:00;47.84;60.00
74420;DHT22;62855;50.718;-2.460;2023-02-01T16:42:08;47.84;60.00
74420;DHT22;62855;50.718;-2.460;2023-02-01T16:45:01;47.84;60.00
74420;DHT22;62855;50.718;-2.460;2023-02-01T16:48:00;47.84;60.00
74420;DHT22;62855;50.718;-2.460;2023-02-01T16:51:02;47.66;60.00
74420;DHT22;62855;50.718;-2.460;2023-02-01T16:54:01;47.66;60.00
74420;DHT22;62855;50.718;-2.460;2023-02-01T16:57:00;47.48;60.00
74420;DHT22;62855;50.718;-2.460;2023-02-01T17:00:01;47.48;60.00
74420;DHT22;62855;50.718;-2.460;2023-02-01T17:03:01;47.48;60.00
74420;DHT22;62855;50.718;-2.460;2023-02-01T17:06:00;47.30;60.00
74420;DHT22;62855;50.718;-2.460;2023-02-01T17:09:01;47.30;61.00
74420;DHT22;62855;50.718;-2.460;2023-02-01T17:12:01;47.12;61.00
74420;DHT22;62855;50.718;-2.460;2023-02-01T17:15:01;47.12;61.00
74420;DHT22;62855;50.718;-2.460;2023-02-01T17:18:01;46.94;61.00
74420;DHT22;62855;50.718;-2.460;2023-02-01T17:21:02;46.94;61.00
74420;DHT22;62855;50.718;-2.460;2023-02-01T17:24:01;46.76;61.00
74420;DHT22;62855;50.718;-2.460;2023-02-01T17:27:00;46.76;61.00
74420;DHT22;62855;50.718;-2.460;2023-02-01T17:30:00;46.58;61.00
74420;DHT22;62855;50.718;-2.460;2023-02-01T17:33:00;46.58;61.00
74420;DHT22;62855;50.718;-2.460;2023-02-01T17:36:03;46.40;61.00
74420;DHT22;62855;50.718;-2.460;2023-02-01T17:39:01;46.22;61.00
74420;DHT22;62855;50.718;-2.460;2023-02-01T17:42:01;46.04;61.00
74420;DHT22;62855;50.718;-2.460;2023-02-01T17:45:09;45.86;62.00
74420;DHT22;62855;50.718;-2.460;2023-02-01T17:48:01;45.86;62.00
74420;DHT22;62855;50.718;-2.460;2023-02-01T17:51:00;45.68;62.00
74420;DHT22;62855;50.718;-2.460;2023-02-01T17:54:00;45.68;62.00
74420;DHT22;62855;50.718;-2.460;2023-02-01T17:57:01;45.50;62.00
74420;DHT22;62855;50.718;-2.460;2023-02-01T18:00:01;45.50;62.00
74420;DHT22;62855;50.718;-2.460;2023-02-01T18:03:01;45.32;62.00
74420;DHT22;62855;50.718;-2.460;2023-02-01T18:06:02;45.14;63.00
74420;DHT22;62855;50.718;-2.460;2023-02-01T18:09:00;45.14;63.00
74420;DHT22;62855;50.718;-2.460;2023-02-01T18:12:02;45.14;63.00
74420;DHT22;62855;50.718;-2.460;2023-02-01T18:15:00;44.96;63.00
74420;DHT22;62855;50.718;-2.460;2023-02-01T18:18:01;44.96;63.00
74420;DHT22;62855;50.718;-2.460;2023-02-01T18:21:00;44.96;64.00
74420;DHT22;62855;50.718;-2.460;2023-02-01T18:24:01;44.96;64.00
74420;DHT22;62855;50.718;-2.460;2023-02-01T18:27:01;44.96;64.00
74420;DHT22;62855;50.718;-2.460;2023-02-01T18:30:00;44.96;64.00
74420;DHT22;62855;50.718;-2.460;2023-02-01T18:33:00;44.96;65.00
74420;DHT22;62855;50.718;-2.460;2023-02-01T18:36:00;45.14;65.00
74420;DHT22;62855;50.718;-2.460;2023-02-01T18:39:00;45.14;65.00
74420;DHT22;62855;50.718;-2.460;2023-02-01T18:42:01;45.32;66.00
74420;DHT22;62855;50.718;-2.460;2023-02-01T18:45:01;45.32;66.00
74420;DHT22;62855;50.718;-2.460;2023-02-01T18:48:01;45.50;66.00
74420;DHT22;62855;50.718;-2.460;2023-02-01T18:51:01;45.50;66.00
74420;DHT22;62855;50.718;-2.460;2023-02-01T18:54:00;45.50;66.00
74420;DHT22;62855;50.718;-2.460;2023-02-01T18:57:01;45.50;66.00
74420;DHT22;62855;50.718;-2.460;2023-02-01T19:00:00;45.50;66.00
74420;DHT22;62855;50.718;-2.460;2023-02-01T19:03:01;45.50;66.00
74420;DHT22;62855;50.718;-2.460;2023-02-01T19:06:01;45.50;66.00
74420;DHT22;62855;50.718;-2.460;2023-02-01T19:09:00;45.50;66.00